sensor_id;sensor_type;location;lat;lon;timestamp;P1;durP1;ratioP1;P2;durP2;ratioP2
313;SDS011;143;51.634;7.112;2023-02-24T00:00:06;21.97;;;6.50;;
313;SDS011;143;51.634;7.112;2023-02-24T00:03:00;18.57;;;5.00;;
313;SDS011;143;51.634;7.112;2023-02-24T00:05:33;27.17;;;6.43;;
313;SDS011;143;51.634;7.112;2023-02-24T00:08:00;25.03;;;6.10;;
313;SDS011;143;51.634;7.112;2023-02-24T00:10:26;32.10;;;5.57;;
313;SDS011;143;51.634;7.112;2023-02-24T00:12:51;25.73;;;5.47;;
313;SDS011;143;51.634;7.112;2023-02-24T00:15:18;26.13;;;6.20;;
313;SDS011;143;51.634;7.112;2023-02-24T00:17:44;24.97;;;5.63;;
313;SDS011;143;51.634;7.112;2023-02-24T00:20:10;23.33;;;7.07;;
313;SDS011;143;51.634;7.112;2023-02-24T00:22:40;21.70;;;5.27;;
313;SDS011;143;51.634;7.112;2023-02-24T00:25:06;23.13;;;4.80;;
313;SDS011;143;51.634;7.112;2023-02-24T00:27:33;22.50;;;6.37;;
313;SDS011;143;51.634;7.112;2023-02-24T00:29:58;18.93;;;5.17;;
313;SDS011;143;51.634;7.112;2023-02-24T00:32:25;41.17;;;7.27;;
313;SDS011;143;51.634;7.112;2023-02-24T00:34:51;28.77;;;5.23;;
313;SDS011;143;51.634;7.112;2023-02-24T00:37:17;19.10;;;4.50;;
313;SDS011;143;51.634;7.112;2023-02-24T00:39:48;19.73;;;5.00;;
313;SDS011;143;51.634;7.112;2023-02-24T00:42:14;34.88;;;5.65;;
313;SDS011;143;51.634;7.112;2023-02-24T00:44:44;37.27;;;5.47;;
313;SDS011;143;51.634;7.112;2023-02-24T00:47:11;32.63;;;7.67;;
313;SDS011;143;51.634;7.112;2023-02-24T00:49:38;34.55;;;5.90;;
313;SDS011;143;51.634;7.112;2023-02-24T00:52:07;27.23;;;4.90;;
313;SDS011;143;51.634;7.112;2023-02-24T00:54:35;18.30;;;4.60;;
313;SDS011;143;51.634;7.112;2023-02-24T00:57:01;21.03;;;5.20;;
313;SDS011;143;51.634;7.112;2023-02-24T00:59:27;21.95;;;4.80;;
313;SDS011;143;51.634;7.112;2023-02-24T01:01:53;30.43;;;5.10;;
313;SDS011;143;51.634;7.112;2023-02-24T01:04:19;27.20;;;6.57;;
313;SDS011;143;51.634;7.112;2023-02-24T01:06:49;14.50;;;4.35;;
313;SDS011;143;51.634;7.112;2023-02-24T01:09:17;30.13;;;5.80;;
313;SDS011;143;51.634;7.112;2023-02-24T01:11:45;22.63;;;4.15;;
313;SDS011;143;51.634;7.112;2023-02-24T01:14:31;20.92;;;5.10;;
313;SDS011;143;51.634;7.112;2023-02-24T01:16:59;26.08;;;6.57;;
313;SDS011;143;51.634;7.112;2023-02-24T01:19:27;20.67;;;4.72;;
313;SDS011;143;51.634;7.112;2023-02-24T01:21:54;42.45;;;6.38;;
313;SDS011;143;51.634;7.112;2023-02-24T01:24:22;26.35;;;5.55;;
313;SDS011;143;51.634;7.112;2023-02-24T01:26:51;29.27;;;5.22;;
313;SDS011;143;51.634;7.112;2023-02-24T01:29:17;18.35;;;5.30;;
313;SDS011;143;51.634;7.112;2023-02-24T01:31:43;26.70;;;4.95;;
313;SDS011;143;51.634;7.112;2023-02-24T01:34:10;25.00;;;5.18;;
313;SDS011;143;51.634;7.112;2023-02-24T01:36:37;18.58;;;4.75;;
313;SDS011;143;51.634;7.112;2023-02-24T01:39:04;25.45;;;4.85;;
313;SDS011;143;51.634;7.112;2023-02-24T01:41:35;21.15;;;5.28;;
313;SDS011;143;51.634;7.112;2023-02-24T01:44:06;16.63;;;4.88;;
313;SDS011;143;51.634;7.112;2023-02-24T01:46:39;19.30;;;4.20;;
313;SDS011;143;51.634;7.112;2023-02-24T01:51:55;19.25;;;5.32;;
313;SDS011;143;51.634;7.112;2023-02-24T01:54:27;17.98;;;4.93;;
313;SDS011;143;51.634;7.112;2023-02-24T01:57:03;23.55;;;4.50;;
313;SDS011;143;51.634;7.112;2023-02-24T01:59:30;26.23;;;5.15;;
313;SDS011;143;51.634;7.112;2023-02-24T02:01:59;16.33;;;4.60;;
313;SDS011;143;51.634;7.112;2023-02-24T02:04:35;32.35;;;5.70;;
313;SDS011;143;51.634;7.112;2023-02-24T02:07:14;20.25;;;4.15;;
313;SDS011;143;51.634;7.112;2023-02-24T02:09:42;31.70;;;4.40;;
313;SDS011;143;51.634;7.112;2023-02-24T02:12:10;20.10;;;4.18;;
313;SDS011;143;51.634;7.112;2023-02-24T02:14:37;22.83;;;4.68;;
313;SDS011;143;51.634;7.112;2023-02-24T02:23:05;29.05;;;4.25;;
313;SDS011;143;51.634;7.112;2023-02-24T02:28:24;21.48;;;4.20;;
313;SDS011;143;51.634;7.112;2023-02-24T02:37:10;17.45;;;4.47;;
313;SDS011;143;51.634;7.112;2023-02-24T02:39:47;19.63;;;4.65;;
313;SDS011;143;51.634;7.112;2023-02-24T02:48:09;22.05;;;4.90;;
313;SDS011;143;51.634;7.112;2023-02-24T02:50:58;26.30;;;4.30;;
313;SDS011;143;51.634;7.112;2023-02-24T02:53:32;18.50;;;3.97;;
313;SDS011;143;51.634;7.112;2023-02-24T02:56:08;23.05;;;4.75;;
313;SDS011;143;51.634;7.112;2023-02-24T02:58:47;24.42;;;4.38;;
313;SDS011;143;51.634;7.112;2023-02-24T03:01:20;23.88;;;5.57;;
313;SDS011;143;51.634;7.112;2023-02-24T03:03:52;20.52;;;4.35;;
313;SDS011;143;51.634;7.112;2023-02-24T03:06:22;24.58;;;5.45;;
313;SDS011;143;51.634;7.112;2023-02-24T03:08:56;19.15;;;5.32;;
313;SDS011;143;51.634;7.112;2023-02-24T03:11:26;15.05;;;3.65;;
313;SDS011;143;51.634;7.112;2023-02-24T03:13:55;20.85;;;4.25;;
313;SDS011;143;51.634;7.112;2023-02-24T03:16:23;20.10;;;5.93;;
313;SDS011;143;51.634;7.112;2023-02-24T03:18:52;19.98;;;4.45;;
313;SDS011;143;51.634;7.112;2023-02-24T03:21:31;15.63;;;4.30;;
313;SDS011;143;51.634;7.112;2023-02-24T03:24:00;27.08;;;6.20;;
313;SDS011;143;51.634;7.112;2023-02-24T03:26:28;17.05;;;4.20;;
313;SDS011;143;51.634;7.112;2023-02-24T03:29:10;18.15;;;4.35;;
313;SDS011;143;51.634;7.112;2023-02-24T03:34:29;15.15;;;4.32;;
313;SDS011;143;51.634;7.112;2023-02-24T03:37:10;25.88;;;5.30;;
313;SDS011;143;51.634;7.112;2023-02-24T03:39:36;16.40;;;3.83;;
313;SDS011;143;51.634;7.112;2023-02-24T03:42:03;17.05;;;4.30;;
313;SDS011;143;51.634;7.112;2023-02-24T03:44:43;14.77;;;3.83;;
313;SDS011;143;51.634;7.112;2023-02-24T03:47:09;13.27;;;3.45;;
313;SDS011;143;51.634;7.112;2023-02-24T03:49:35;29.80;;;4.90;;
313;SDS011;143;51.634;7.112;2023-02-24T04:00:20;16.83;;;4.32;;
313;SDS011;143;51.634;7.112;2023-02-24T04:03:08;18.35;;;4.22;;
313;SDS011;143;51.634;7.112;2023-02-24T04:08:38;16.48;;;4.65;;
313;SDS011;143;51.634;7.112;2023-02-24T04:14:18;15.00;;;4.68;;
313;SDS011;143;51.634;7.112;2023-02-24T04:17:56;23.00;;;4.80;;
313;SDS011;143;51.634;7.112;2023-02-24T04:19:50;23.92;;;4.38;;
313;SDS011;143;51.634;7.112;2023-02-24T04:22:20;30.27;;;7.72;;
313;SDS011;143;51.634;7.112;2023-02-24T04:24:49;26.83;;;7.30;;
313;SDS011;143;51.634;7.112;2023-02-24T04:27:19;29.23;;;5.60;;
313;SDS011;143;51.634;7.112;2023-02-24T04:29:48;19.98;;;4.72;;
313;SDS011;143;51.634;7.112;2023-02-24T04:32:18;22.17;;;4.75;;
313;SDS011;143;51.634;7.112;2023-02-24T04:34:47;24.27;;;4.43;;
313;SDS011;143;51.634;7.112;2023-02-24T04:37:14;25.38;;;4.55;;
313;SDS011;143;51.634;7.112;2023-02-24T04:39:39;12.73;;;4.40;;
313;SDS011;143;51.634;7.112;2023-02-24T04:42:05;16.60;;;4.00;;
313;SDS011;143;51.634;7.112;2023-02-24T04:44:31;18.00;;;4.50;;
313;SDS011;143;51.634;7.112;2023-02-24T04:46:57;21.27;;;4.30;;
313;SDS011;143;51.634;7.112;2023-02-24T04:49:24;16.30;;;4.72;;
313;SDS011;143;51.634;7.112;2023-02-24T04:51:51;19.83;;;4.80;;
313;SDS011;143;51.634;7.112;2023-02-24T04:54:18;17.48;;;4.60;;
313;SDS011;143;51.634;7.112;2023-02-24T04:56:45;12.65;;;3.67;;
313;SDS011;143;51.634;7.112;2023-02-24T04:59:15;26.15;;;4.10;;
313;SDS011;143;51.634;7.112;2023-02-24T05:01:42;22.42;;;5.20;;
313;SDS011;143;51.634;7.112;2023-02-24T05:04:09;15.20;;;3.35;;
313;SDS011;143;51.634;7.112;2023-02-24T05:06:36;18.70;;;4.25;;
313;SDS011;143;51.634;7.112;2023-02-24T05:09:11;14.95;;;4.32;;
313;SDS011;143;51.634;7.112;2023-02-24T05:11:42;29.30;;;3.72;;
313;SDS011;143;51.634;7.112;2023-02-24T05:14:09;14.10;;;4.28;;
313;SDS011;143;51.634;7.112;2023-02-24T05:16:43;11.35;;;3.50;;
313;SDS011;143;51.634;7.112;2023-02-24T05:19:11;15.98;;;3.65;;
313;SDS011;143;51.634;7.112;2023-02-24T05:21:56;21.40;;;4.10;;
313;SDS011;143;51.634;7.112;2023-02-24T05:24:23;16.90;;;4.33;;
313;SDS011;143;51.634;7.112;2023-02-24T05:26:51;25.20;;;5.57;;
313;SDS011;143;51.634;7.112;2023-02-24T05:29:32;21.58;;;4.13;;
313;SDS011;143;51.634;7.112;2023-02-24T05:31:59;14.63;;;3.28;;
313;SDS011;143;51.634;7.112;2023-02-24T05:34:26;17.10;;;4.43;;
313;SDS011;143;51.634;7.112;2023-02-24T05:36:54;11.63;;;3.60;;
313;SDS011;143;51.634;7.112;2023-02-24T05:39:22;16.80;;;5.00;;
313;SDS011;143;51.634;7.112;2023-02-24T05:41:50;15.35;;;3.63;;
313;SDS011;143;51.634;7.112;2023-02-24T05:44:18;20.50;;;4.20;;
313;SDS011;143;51.634;7.112;2023-02-24T05:46:47;14.13;;;4.15;;
313;SDS011;143;51.634;7.112;2023-02-24T05:51:51;22.10;;;3.67;;
313;SDS011;143;51.634;7.112;2023-02-24T05:54:18;18.05;;;3.55;;
313;SDS011;143;51.634;7.112;2023-02-24T05:56:52;14.20;;;4.40;;
313;SDS011;143;51.634;7.112;2023-02-24T05:59:20;14.35;;;4.35;;
313;SDS011;143;51.634;7.112;2023-02-24T06:01:47;15.07;;;3.70;;
313;SDS011;143;51.634;7.112;2023-02-24T06:04:17;14.73;;;5.35;;
313;SDS011;143;51.634;7.112;2023-02-24T06:07:03;8.60;;;2.95;;
313;SDS011;143;51.634;7.112;2023-02-24T06:09:58;17.10;;;4.07;;
313;SDS011;143;51.634;7.112;2023-02-24T06:12:29;19.38;;;3.60;;
313;SDS011;143;51.634;7.112;2023-02-24T06:14:57;13.57;;;3.60;;
313;SDS011;143;51.634;7.112;2023-02-24T06:17:23;14.52;;;3.90;;
313;SDS011;143;51.634;7.112;2023-02-24T06:19:50;9.50;;;3.30;;
313;SDS011;143;51.634;7.112;2023-02-24T06:22:17;23.92;;;4.10;;
313;SDS011;143;51.634;7.112;2023-02-24T06:24:45;13.90;;;4.53;;
313;SDS011;143;51.634;7.112;2023-02-24T06:27:13;18.42;;;3.40;;
313;SDS011;143;51.634;7.112;2023-02-24T06:29:45;14.68;;;3.90;;
313;SDS011;143;51.634;7.112;2023-02-24T06:32:13;11.75;;;3.47;;
313;SDS011;143;51.634;7.112;2023-02-24T06:34:40;14.13;;;3.60;;
313;SDS011;143;51.634;7.112;2023-02-24T06:37:06;22.53;;;3.70;;
313;SDS011;143;51.634;7.112;2023-02-24T06:39:34;9.43;;;3.78;;
313;SDS011;143;51.634;7.112;2023-02-24T06:42:00;9.87;;;2.60;;
313;SDS011;143;51.634;7.112;2023-02-24T06:44:31;13.85;;;3.35;;
313;SDS011;143;51.634;7.112;2023-02-24T06:46:58;14.95;;;3.85;;
313;SDS011;143;51.634;7.112;2023-02-24T06:49:25;22.33;;;3.95;;
313;SDS011;143;51.634;7.112;2023-02-24T06:51:51;14.18;;;3.92;;
313;SDS011;143;51.634;7.112;2023-02-24T06:54:18;9.20;;;3.38;;
313;SDS011;143;51.634;7.112;2023-02-24T06:56:48;11.90;;;2.85;;
313;SDS011;143;51.634;7.112;2023-02-24T06:59:14;18.52;;;4.25;;
313;SDS011;143;51.634;7.112;2023-02-24T07:01:46;17.08;;;3.15;;
313;SDS011;143;51.634;7.112;2023-02-24T07:04:13;24.70;;;4.95;;
313;SDS011;143;51.634;7.112;2023-02-24T07:06:40;19.90;;;3.67;;
313;SDS011;143;51.634;7.112;2023-02-24T07:09:08;10.07;;;2.80;;
313;SDS011;143;51.634;7.112;2023-02-24T07:11:37;16.40;;;3.90;;
313;SDS011;143;51.634;7.112;2023-02-24T07:14:10;23.65;;;3.45;;
313;SDS011;143;51.634;7.112;2023-02-24T07:16:37;19.23;;;3.45;;
313;SDS011;143;51.634;7.112;2023-02-24T07:19:06;19.98;;;3.92;;
313;SDS011;143;51.634;7.112;2023-02-24T07:21:36;8.18;;;2.95;;
313;SDS011;143;51.634;7.112;2023-02-24T07:24:10;16.90;;;3.00;;
313;SDS011;143;51.634;7.112;2023-02-24T07:26:41;9.43;;;3.40;;
313;SDS011;143;51.634;7.112;2023-02-24T07:29:10;18.20;;;3.40;;
313;SDS011;143;51.634;7.112;2023-02-24T07:31:37;8.70;;;2.92;;
313;SDS011;143;51.634;7.112;2023-02-24T07:34:03;18.70;;;3.20;;
313;SDS011;143;51.634;7.112;2023-02-24T07:36:30;20.33;;;4.20;;
313;SDS011;143;51.634;7.112;2023-02-24T07:39:03;19.23;;;3.05;;
313;SDS011;143;51.634;7.112;2023-02-24T07:41:32;10.23;;;3.00;;
313;SDS011;143;51.634;7.112;2023-02-24T07:43:58;22.05;;;3.03;;
313;SDS011;143;51.634;7.112;2023-02-24T07:46:27;15.93;;;2.60;;
313;SDS011;143;51.634;7.112;2023-02-24T07:48:54;22.75;;;3.10;;
313;SDS011;143;51.634;7.112;2023-02-24T07:51:21;10.90;;;2.00;;
313;SDS011;143;51.634;7.112;2023-02-24T07:53:53;19.30;;;3.28;;
313;SDS011;143;51.634;7.112;2023-02-24T07:56:21;14.30;;;3.15;;
313;SDS011;143;51.634;7.112;2023-02-24T07:58:51;16.67;;;3.30;;
313;SDS011;143;51.634;7.112;2023-02-24T08:01:23;21.90;;;4.30;;
313;SDS011;143;51.634;7.112;2023-02-24T08:03:53;14.55;;;3.47;;
313;SDS011;143;51.634;7.112;2023-02-24T08:06:25;20.38;;;4.35;;
313;SDS011;143;51.634;7.112;2023-02-24T08:09:12;9.57;;;3.15;;
313;SDS011;143;51.634;7.112;2023-02-24T08:14:16;11.70;;;3.88;;
313;SDS011;143;51.634;7.112;2023-02-24T08:16:44;21.85;;;4.15;;
313;SDS011;143;51.634;7.112;2023-02-24T08:19:13;12.63;;;4.15;;
313;SDS011;143;51.634;7.112;2023-02-24T08:21:45;9.20;;;3.55;;
313;SDS011;143;51.634;7.112;2023-02-24T08:24:15;13.23;;;3.33;;
313;SDS011;143;51.634;7.112;2023-02-24T08:26:46;26.23;;;3.35;;
313;SDS011;143;51.634;7.112;2023-02-24T08:29:28;16.27;;;3.20;;
313;SDS011;143;51.634;7.112;2023-02-24T08:31:55;16.73;;;4.10;;
313;SDS011;143;51.634;7.112;2023-02-24T08:34:22;13.20;;;3.67;;
313;SDS011;143;51.634;7.112;2023-02-24T08:36:51;19.15;;;3.50;;
313;SDS011;143;51.634;7.112;2023-02-24T08:39:20;10.70;;;3.53;;
313;SDS011;143;51.634;7.112;2023-02-24T08:41:47;16.13;;;2.50;;
313;SDS011;143;51.634;7.112;2023-02-24T08:44:16;22.35;;;2.75;;
313;SDS011;143;51.634;7.112;2023-02-24T08:46:46;13.88;;;3.75;;
313;SDS011;143;51.634;7.112;2023-02-24T08:49:14;6.85;;;2.90;;
313;SDS011;143;51.634;7.112;2023-02-24T08:51:42;16.98;;;2.92;;
313;SDS011;143;51.634;7.112;2023-02-24T08:54:16;20.00;;;3.17;;
313;SDS011;143;51.634;7.112;2023-02-24T08:56:51;15.82;;;3.00;;
313;SDS011;143;51.634;7.112;2023-02-24T08:59:20;10.48;;;2.55;;
313;SDS011;143;51.634;7.112;2023-02-24T09:02:02;19.80;;;2.90;;
313;SDS011;143;51.634;7.112;2023-02-24T09:04:49;20.40;;;4.75;;
313;SDS011;143;51.634;7.112;2023-02-24T09:07:27;16.75;;;2.83;;
313;SDS011;143;51.634;7.112;2023-02-24T09:09:59;13.35;;;2.38;;
313;SDS011;143;51.634;7.112;2023-02-24T09:12:27;18.58;;;3.38;;
313;SDS011;143;51.634;7.112;2023-02-24T09:14:55;8.15;;;2.72;;
313;SDS011;143;51.634;7.112;2023-02-24T09:17:25;13.75;;;2.88;;
313;SDS011;143;51.634;7.112;2023-02-24T09:20:14;13.80;;;2.63;;
313;SDS011;143;51.634;7.112;2023-02-24T09:23:02;11.55;;;2.85;;
313;SDS011;143;51.634;7.112;2023-02-24T09:25:30;12.90;;;2.38;;
313;SDS011;143;51.634;7.112;2023-02-24T09:28:26;21.17;;;3.50;;
313;SDS011;143;51.634;7.112;2023-02-24T09:30:56;15.88;;;2.90;;
313;SDS011;143;51.634;7.112;2023-02-24T09:33:28;11.00;;;3.00;;
313;SDS011;143;51.634;7.112;2023-02-24T09:36:10;13.05;;;2.10;;
313;SDS011;143;51.634;7.112;2023-02-24T09:38:40;21.38;;;5.05;;
313;SDS011;143;51.634;7.112;2023-02-24T09:41:28;10.25;;;3.10;;
313;SDS011;143;51.634;7.112;2023-02-24T09:43:57;16.77;;;2.58;;
313;SDS011;143;51.634;7.112;2023-02-24T09:46:27;13.60;;;3.40;;
313;SDS011;143;51.634;7.112;2023-02-24T09:49:06;20.20;;;3.22;;
313;SDS011;143;51.634;7.112;2023-02-24T09:51:38;9.05;;;2.67;;
313;SDS011;143;51.634;7.112;2023-02-24T09:54:16;14.75;;;3.28;;
313;SDS011;143;51.634;7.112;2023-02-24T09:56:57;9.88;;;2.67;;
313;SDS011;143;51.634;7.112;2023-02-24T10:03:09;22.75;;;3.65;;
313;SDS011;143;51.634;7.112;2023-02-24T10:08:49;11.75;;;2.78;;
313;SDS011;143;51.634;7.112;2023-02-24T10:11:21;14.30;;;3.17;;
313;SDS011;143;51.634;7.112;2023-02-24T10:13:57;25.33;;;3.47;;
313;SDS011;143;51.634;7.112;2023-02-24T10:16:29;16.45;;;2.85;;
313;SDS011;143;51.634;7.112;2023-02-24T10:19:23;16.02;;;3.05;;
313;SDS011;143;51.634;7.112;2023-02-24T10:22:05;21.90;;;3.10;;
313;SDS011;143;51.634;7.112;2023-02-24T10:24:51;6.75;;;2.88;;
313;SDS011;143;51.634;7.112;2023-02-24T10:33:16;11.55;;;3.40;;
313;SDS011;143;51.634;7.112;2023-02-24T10:35:43;17.50;;;3.70;;
313;SDS011;143;51.634;7.112;2023-02-24T10:38:08;13.30;;;3.30;;
313;SDS011;143;51.634;7.112;2023-02-24T10:40:52;17.13;;;3.73;;
313;SDS011;143;51.634;7.112;2023-02-24T10:43:23;17.08;;;3.70;;
313;SDS011;143;51.634;7.112;2023-02-24T10:45:54;17.42;;;4.22;;
313;SDS011;143;51.634;7.112;2023-02-24T10:48:30;12.25;;;3.80;;
313;SDS011;143;51.634;7.112;2023-02-24T10:51:13;24.17;;;6.63;;
313;SDS011;143;51.634;7.112;2023-02-24T10:54:03;20.30;;;4.93;;
313;SDS011;143;51.634;7.112;2023-02-24T10:56:46;17.58;;;4.38;;
313;SDS011;143;51.634;7.112;2023-02-24T10:59:24;13.98;;;3.55;;
313;SDS011;143;51.634;7.112;2023-02-24T11:02:18;12.98;;;4.25;;
313;SDS011;143;51.634;7.112;2023-02-24T11:04:58;17.77;;;4.35;;
313;SDS011;143;51.634;7.112;2023-02-24T11:07:48;22.73;;;4.78;;
313;SDS011;143;51.634;7.112;2023-02-24T11:10:23;19.33;;;4.97;;
313;SDS011;143;51.634;7.112;2023-02-24T11:12:50;23.23;;;4.82;;
313;SDS011;143;51.634;7.112;2023-02-24T11:15:47;23.52;;;4.30;;
313;SDS011;143;51.634;7.112;2023-02-24T11:18:35;15.70;;;4.70;;
313;SDS011;143;51.634;7.112;2023-02-24T11:21:07;12.65;;;4.13;;
313;SDS011;143;51.634;7.112;2023-02-24T11:23:38;16.27;;;4.03;;
313;SDS011;143;51.634;7.112;2023-02-24T11:26:28;17.58;;;3.78;;
313;SDS011;143;51.634;7.112;2023-02-24T11:40:26;19.00;;;5.38;;
313;SDS011;143;51.634;7.112;2023-02-24T11:43:00;22.38;;;5.90;;
313;SDS011;143;51.634;7.112;2023-02-24T11:45:37;18.35;;;7.38;;
313;SDS011;143;51.634;7.112;2023-02-24T11:50:54;21.05;;;6.20;;
313;SDS011;143;51.634;7.112;2023-02-24T11:56:32;25.52;;;8.45;;
313;SDS011;143;51.634;7.112;2023-02-24T12:01:36;25.70;;;8.23;;
313;SDS011;143;51.634;7.112;2023-02-24T12:04:09;21.70;;;8.93;;
313;SDS011;143;51.634;7.112;2023-02-24T12:09:56;25.70;;;9.82;;
313;SDS011;143;51.634;7.112;2023-02-24T12:13:01;28.02;;;11.57;;
313;SDS011;143;51.634;7.112;2023-02-24T12:21:04;25.77;;;12.10;;
313;SDS011;143;51.634;7.112;2023-02-24T12:23:32;29.20;;;12.02;;
313;SDS011;143;51.634;7.112;2023-02-24T12:26:02;27.55;;;12.77;;
313;SDS011;143;51.634;7.112;2023-02-24T12:40:08;34.38;;;16.15;;
313;SDS011;143;51.634;7.112;2023-02-24T12:58:36;32.78;;;15.88;;
313;SDS011;143;51.634;7.112;2023-02-24T13:10:36;35.20;;;15.35;;
313;SDS011;143;51.634;7.112;2023-02-24T13:18:26;39.83;;;14.75;;
313;SDS011;143;51.634;7.112;2023-02-24T13:23:39;23.38;;;13.35;;
313;SDS011;143;51.634;7.112;2023-02-24T13:26:06;38.40;;;14.88;;
313;SDS011;143;51.634;7.112;2023-02-24T13:28:35;28.52;;;15.10;;
313;SDS011;143;51.634;7.112;2023-02-24T13:31:09;34.28;;;17.38;;
313;SDS011;143;51.634;7.112;2023-02-24T13:33:39;40.20;;;16.33;;
313;SDS011;143;51.634;7.112;2023-02-24T13:36:13;31.55;;;15.10;;
313;SDS011;143;51.634;7.112;2023-02-24T13:38:42;42.03;;;16.20;;
313;SDS011;143;51.634;7.112;2023-02-24T13:43:52;31.38;;;13.90;;
313;SDS011;143;51.634;7.112;2023-02-24T13:46:23;25.77;;;14.02;;
313;SDS011;143;51.634;7.112;2023-02-24T13:51:59;23.88;;;11.88;;
313;SDS011;143;51.634;7.112;2023-02-24T14:02:26;26.33;;;11.40;;
313;SDS011;143;51.634;7.112;2023-02-24T14:04:55;19.77;;;11.57;;
313;SDS011;143;51.634;7.112;2023-02-24T14:07:25;27.23;;;12.60;;
313;SDS011;143;51.634;7.112;2023-02-24T14:09:57;24.73;;;11.10;;
313;SDS011;143;51.634;7.112;2023-02-24T14:12:43;23.35;;;11.05;;
313;SDS011;143;51.634;7.112;2023-02-24T14:15:12;18.75;;;10.52;;
313;SDS011;143;51.634;7.112;2023-02-24T14:17:52;31.38;;;12.70;;
313;SDS011;143;51.634;7.112;2023-02-24T14:20:22;22.77;;;11.65;;
313;SDS011;143;51.634;7.112;2023-02-24T14:22:49;23.48;;;11.52;;
313;SDS011;143;51.634;7.112;2023-02-24T14:25:17;21.48;;;11.45;;
313;SDS011;143;51.634;7.112;2023-02-24T14:27:46;23.65;;;10.50;;
313;SDS011;143;51.634;7.112;2023-02-24T14:30:27;28.55;;;11.18;;
313;SDS011;143;51.634;7.112;2023-02-24T14:32:58;23.30;;;12.07;;
313;SDS011;143;51.634;7.112;2023-02-24T14:35:40;26.38;;;11.85;;
313;SDS011;143;51.634;7.112;2023-02-24T14:38:26;34.20;;;12.60;;
313;SDS011;143;51.634;7.112;2023-02-24T14:40:54;23.05;;;11.82;;
313;SDS011;143;51.634;7.112;2023-02-24T14:43:19;24.87;;;13.43;;
313;SDS011;143;51.634;7.112;2023-02-24T14:45:48;27.90;;;14.30;;
313;SDS011;143;51.634;7.112;2023-02-24T14:48:23;26.92;;;13.32;;
313;SDS011;143;51.634;7.112;2023-02-24T14:50:58;20.10;;;12.57;;
313;SDS011;143;51.634;7.112;2023-02-24T14:53:27;28.05;;;12.70;;
313;SDS011;143;51.634;7.112;2023-02-24T14:55:57;33.78;;;13.15;;
313;SDS011;143;51.634;7.112;2023-02-24T14:58:35;31.23;;;13.07;;
313;SDS011;143;51.634;7.112;2023-02-24T15:03:58;24.33;;;12.57;;
313;SDS011;143;51.634;7.112;2023-02-24T15:06:34;27.58;;;13.38;;
313;SDS011;143;51.634;7.112;2023-02-24T15:09:17;22.20;;;11.27;;
313;SDS011;143;51.634;7.112;2023-02-24T15:11:45;32.58;;;12.57;;
313;SDS011;143;51.634;7.112;2023-02-24T15:16:46;30.60;;;13.27;;
313;SDS011;143;51.634;7.112;2023-02-24T15:19:35;29.67;;;11.95;;
313;SDS011;143;51.634;7.112;2023-02-24T15:22:03;28.10;;;12.60;;
313;SDS011;143;51.634;7.112;2023-02-24T15:24:50;28.58;;;11.43;;
313;SDS011;143;51.634;7.112;2023-02-24T15:29:55;24.25;;;11.93;;
313;SDS011;143;51.634;7.112;2023-02-24T15:32:24;22.35;;;11.07;;
313;SDS011;143;51.634;7.112;2023-02-24T15:34:52;20.42;;;10.73;;
313;SDS011;143;51.634;7.112;2023-02-24T15:37:22;28.80;;;12.07;;
313;SDS011;143;51.634;7.112;2023-02-24T15:39:49;37.67;;;13.15;;
313;SDS011;143;51.634;7.112;2023-02-24T15:42:25;22.20;;;10.80;;
313;SDS011;143;51.634;7.112;2023-02-24T15:45:06;24.77;;;11.15;;
313;SDS011;143;51.634;7.112;2023-02-24T15:47:50;25.33;;;11.60;;
313;SDS011;143;51.634;7.112;2023-02-24T15:50:18;27.48;;;11.77;;
313;SDS011;143;51.634;7.112;2023-02-24T15:52:44;26.45;;;11.38;;
313;SDS011;143;51.634;7.112;2023-02-24T15:55:13;28.33;;;12.67;;
313;SDS011;143;51.634;7.112;2023-02-24T15:57:40;27.48;;;11.23;;
313;SDS011;143;51.634;7.112;2023-02-24T16:00:06;27.40;;;12.30;;
313;SDS011;143;51.634;7.112;2023-02-24T16:02:37;27.55;;;12.15;;
313;SDS011;143;51.634;7.112;2023-02-24T16:05:03;9.88;;;5.30;;
313;SDS011;143;51.634;7.112;2023-02-24T16:07:29;11.57;;;5.10;;
313;SDS011;143;51.634;7.112;2023-02-24T16:09:57;13.48;;;4.90;;
313;SDS011;143;51.634;7.112;2023-02-24T16:12:26;15.30;;;4.40;;
313;SDS011;143;51.634;7.112;2023-02-24T16:14:56;6.13;;;4.32;;
313;SDS011;143;51.634;7.112;2023-02-24T16:19:55;9.45;;;4.95;;
313;SDS011;143;51.634;7.112;2023-02-24T16:22:22;8.95;;;4.88;;
313;SDS011;143;51.634;7.112;2023-02-24T16:24:48;9.07;;;5.10;;
313;SDS011;143;51.634;7.112;2023-02-24T16:27:15;9.20;;;3.80;;
313;SDS011;143;51.634;7.112;2023-02-24T16:29:42;11.70;;;5.13;;
313;SDS011;143;51.634;7.112;2023-02-24T16:32:09;8.70;;;3.97;;
313;SDS011;143;51.634;7.112;2023-02-24T16:34:35;13.40;;;5.27;;
313;SDS011;143;51.634;7.112;2023-02-24T16:37:01;10.20;;;5.10;;
313;SDS011;143;51.634;7.112;2023-02-24T16:39:27;11.33;;;4.07;;
313;SDS011;143;51.634;7.112;2023-02-24T16:41:53;17.33;;;3.93;;
313;SDS011;143;51.634;7.112;2023-02-24T16:44:19;12.60;;;3.30;;
313;SDS011;143;51.634;7.112;2023-02-24T16:46:47;10.47;;;3.50;;
313;SDS011;143;51.634;7.112;2023-02-24T16:49:16;17.08;;;4.72;;
313;SDS011;143;51.634;7.112;2023-02-24T16:51:43;8.20;;;3.15;;
313;SDS011;143;51.634;7.112;2023-02-24T16:54:09;27.27;;;4.20;;
313;SDS011;143;51.634;7.112;2023-02-24T16:56:35;9.67;;;2.70;;
313;SDS011;143;51.634;7.112;2023-02-24T16:59:03;17.80;;;3.35;;
313;SDS011;143;51.634;7.112;2023-02-24T17:01:28;13.93;;;3.97;;
313;SDS011;143;51.634;7.112;2023-02-24T17:03:54;15.97;;;4.60;;
313;SDS011;143;51.634;7.112;2023-02-24T17:06:20;15.17;;;2.87;;
313;SDS011;143;51.634;7.112;2023-02-24T17:08:47;13.10;;;3.22;;
313;SDS011;143;51.634;7.112;2023-02-24T17:11:13;13.57;;;3.67;;
313;SDS011;143;51.634;7.112;2023-02-24T17:13:41;26.83;;;3.42;;
313;SDS011;143;51.634;7.112;2023-02-24T17:16:07;13.82;;;3.00;;
313;SDS011;143;51.634;7.112;2023-02-24T17:18:34;11.93;;;3.53;;
313;SDS011;143;51.634;7.112;2023-02-24T17:21:00;9.80;;;2.50;;
313;SDS011;143;51.634;7.112;2023-02-24T17:23:26;20.08;;;4.20;;
313;SDS011;143;51.634;7.112;2023-02-24T17:25:53;12.63;;;2.90;;
313;SDS011;143;51.634;7.112;2023-02-24T17:28:20;24.10;;;3.70;;
313;SDS011;143;51.634;7.112;2023-02-24T17:30:46;14.77;;;4.17;;
313;SDS011;143;51.634;7.112;2023-02-24T17:33:12;16.57;;;3.17;;
313;SDS011;143;51.634;7.112;2023-02-24T17:35:38;13.95;;;2.95;;
313;SDS011;143;51.634;7.112;2023-02-24T17:38:12;15.85;;;2.63;;
313;SDS011;143;51.634;7.112;2023-02-24T17:40:39;14.02;;;3.03;;
313;SDS011;143;51.634;7.112;2023-02-24T17:43:06;13.68;;;2.42;;
313;SDS011;143;51.634;7.112;2023-02-24T17:45:32;14.93;;;2.97;;
313;SDS011;143;51.634;7.112;2023-02-24T17:47:58;12.10;;;2.20;;
313;SDS011;143;51.634;7.112;2023-02-24T17:50:23;15.43;;;1.80;;
313;SDS011;143;51.634;7.112;2023-02-24T17:52:49;10.43;;;1.83;;
313;SDS011;143;51.634;7.112;2023-02-24T17:55:15;5.03;;;1.73;;
313;SDS011;143;51.634;7.112;2023-02-24T17:57:41;9.13;;;1.90;;
313;SDS011;143;51.634;7.112;2023-02-24T18:00:07;8.35;;;2.00;;
313;SDS011;143;51.634;7.112;2023-02-24T18:02:34;6.35;;;1.52;;
313;SDS011;143;51.634;7.112;2023-02-24T18:05:00;9.40;;;1.83;;
313;SDS011;143;51.634;7.112;2023-02-24T18:07:26;8.55;;;1.92;;
313;SDS011;143;51.634;7.112;2023-02-24T18:09:52;5.73;;;1.10;;
313;SDS011;143;51.634;7.112;2023-02-24T18:12:18;9.20;;;2.50;;
313;SDS011;143;51.634;7.112;2023-02-24T18:14:45;11.98;;;1.65;;
313;SDS011;143;51.634;7.112;2023-02-24T18:17:14;5.25;;;1.80;;
313;SDS011;143;51.634;7.112;2023-02-24T18:19:40;5.03;;;1.65;;
313;SDS011;143;51.634;7.112;2023-02-24T18:22:05;12.40;;;2.17;;
313;SDS011;143;51.634;7.112;2023-02-24T18:24:31;5.73;;;1.73;;
313;SDS011;143;51.634;7.112;2023-02-24T18:26:58;9.02;;;1.55;;
313;SDS011;143;51.634;7.112;2023-02-24T18:29:26;13.82;;;2.17;;